sensor_id;sensor_type;location;lat;lon;timestamp;P1;durP1;ratioP1;P2;durP2;ratioP2
37753;SDS011;23596;52.520;13.464;2022-12-29T00:02:14;9.70;;;2.50;;
37753;SDS011;23596;52.520;13.464;2022-12-29T00:04:40;5.43;;;2.60;;
37753;SDS011;23596;52.520;13.464;2022-12-29T00:07:06;9.73;;;2.60;;
37753;SDS011;23596;52.520;13.464;2022-12-29T00:09:32;9.65;;;2.53;;
37753;SDS011;23596;52.520;13.464;2022-12-29T00:11:59;9.73;;;2.22;;
37753;SDS011;23596;52.520;13.464;2022-12-29T00:14:26;5.95;;;2.55;;
37753;SDS011;23596;52.520;13.464;2022-12-29T00:17:10;5.53;;;2.60;;
37753;SDS011;23596;52.520;13.464;2022-12-29T00:19:36;8.93;;;2.90;;
37753;SDS011;23596;52.520;13.464;2022-12-29T00:22:21;9.90;;;3.05;;
37753;SDS011;23596;52.520;13.464;2022-12-29T00:25:05;9.80;;;2.88;;
37753;SDS011;23596;52.520;13.464;2022-12-29T00:27:34;6.13;;;2.60;;
37753;SDS011;23596;52.520;13.464;2022-12-29T00:30:19;5.60;;;2.28;;
37753;SDS011;23596;52.520;13.464;2022-12-29T00:35:59;4.75;;;2.65;;
37753;SDS011;23596;52.520;13.464;2022-12-29T00:38:56;11.02;;;3.53;;
37753;SDS011;23596;52.520;13.464;2022-12-29T00:41:44;6.85;;;2.72;;
37753;SDS011;23596;52.520;13.464;2022-12-29T00:44:28;7.93;;;3.13;;
37753;SDS011;23596;52.520;13.464;2022-12-29T00:46:54;7.20;;;2.37;;
37753;SDS011;23596;52.520;13.464;2022-12-29T00:49:19;4.93;;;2.20;;
37753;SDS011;23596;52.520;13.464;2022-12-29T00:51:59;7.15;;;2.03;;
37753;SDS011;23596;52.520;13.464;2022-12-29T00:54:31;4.88;;;2.00;;
37753;SDS011;23596;52.520;13.464;2022-12-29T00:56:58;7.38;;;1.92;;
37753;SDS011;23596;52.520;13.464;2022-12-29T00:59:24;6.10;;;2.33;;
37753;SDS011;23596;52.520;13.464;2022-12-29T01:01:50;8.27;;;2.33;;
37753;SDS011;23596;52.520;13.464;2022-12-29T01:04:17;3.70;;;1.90;;
37753;SDS011;23596;52.520;13.464;2022-12-29T01:06:44;4.85;;;1.98;;
37753;SDS011;23596;52.520;13.464;2022-12-29T01:09:10;6.07;;;1.90;;
37753;SDS011;23596;52.520;13.464;2022-12-29T01:11:54;4.20;;;2.00;;
37753;SDS011;23596;52.520;13.464;2022-12-29T01:14:20;10.53;;;2.63;;
37753;SDS011;23596;52.520;13.464;2022-12-29T01:16:47;5.00;;;2.03;;
37753;SDS011;23596;52.520;13.464;2022-12-29T01:19:13;6.47;;;1.85;;
37753;SDS011;23596;52.520;13.464;2022-12-29T01:21:40;8.68;;;2.30;;
37753;SDS011;23596;52.520;13.464;2022-12-29T01:24:05;5.30;;;1.93;;
37753;SDS011;23596;52.520;13.464;2022-12-29T01:26:31;6.50;;;2.10;;
37753;SDS011;23596;52.520;13.464;2022-12-29T01:28:57;3.53;;;1.83;;
37753;SDS011;23596;52.520;13.464;2022-12-29T01:31:23;4.97;;;1.90;;
37753;SDS011;23596;52.520;13.464;2022-12-29T01:33:48;7.00;;;2.33;;
37753;SDS011;23596;52.520;13.464;2022-12-29T01:36:14;3.90;;;2.00;;
37753;SDS011;23596;52.520;13.464;2022-12-29T01:38:41;8.43;;;2.65;;
37753;SDS011;23596;52.520;13.464;2022-12-29T01:41:08;6.22;;;1.88;;
37753;SDS011;23596;52.520;13.464;2022-12-29T01:46:26;5.13;;;1.80;;
37753;SDS011;23596;52.520;13.464;2022-12-29T01:49:22;8.07;;;2.42;;
37753;SDS011;23596;52.520;13.464;2022-12-29T01:51:59;7.25;;;2.42;;
37753;SDS011;23596;52.520;13.464;2022-12-29T01:54:33;4.70;;;2.38;;
37753;SDS011;23596;52.520;13.464;2022-12-29T01:57:03;6.28;;;2.17;;
37753;SDS011;23596;52.520;13.464;2022-12-29T01:59:34;8.18;;;2.58;;
37753;SDS011;23596;52.520;13.464;2022-12-29T02:02:05;6.28;;;2.05;;
37753;SDS011;23596;52.520;13.464;2022-12-29T02:04:32;9.52;;;2.55;;
37753;SDS011;23596;52.520;13.464;2022-12-29T02:07:03;7.03;;;2.42;;
37753;SDS011;23596;52.520;13.464;2022-12-29T02:09:34;6.07;;;2.33;;
37753;SDS011;23596;52.520;13.464;2022-12-29T02:12:00;9.07;;;2.05;;
37753;SDS011;23596;52.520;13.464;2022-12-29T02:14:27;5.68;;;2.13;;
37753;SDS011;23596;52.520;13.464;2022-12-29T02:22:34;6.47;;;2.33;;
37753;SDS011;23596;52.520;13.464;2022-12-29T02:36:47;6.55;;;2.25;;
37753;SDS011;23596;52.520;13.464;2022-12-29T02:42:21;5.28;;;2.10;;
37753;SDS011;23596;52.520;13.464;2022-12-29T02:47:58;5.55;;;2.03;;
37753;SDS011;23596;52.520;13.464;2022-12-29T02:53:24;4.60;;;1.90;;
37753;SDS011;23596;52.520;13.464;2022-12-29T02:56:20;3.72;;;2.03;;
37753;SDS011;23596;52.520;13.464;2022-12-29T02:58:46;4.53;;;2.07;;
37753;SDS011;23596;52.520;13.464;2022-12-29T03:12:28;4.28;;;1.90;;
37753;SDS011;23596;52.520;13.464;2022-12-29T03:15:22;13.57;;;2.17;;
37753;SDS011;23596;52.520;13.464;2022-12-29T03:18:15;4.65;;;1.77;;
37753;SDS011;23596;52.520;13.464;2022-12-29T03:21:20;6.57;;;1.90;;
37753;SDS011;23596;52.520;13.464;2022-12-29T03:24:13;4.25;;;1.73;;
37753;SDS011;23596;52.520;13.464;2022-12-29T03:26:40;4.80;;;1.95;;
37753;SDS011;23596;52.520;13.464;2022-12-29T03:29:07;2.65;;;1.38;;
37753;SDS011;23596;52.520;13.464;2022-12-29T03:31:35;4.93;;;1.80;;
37753;SDS011;23596;52.520;13.464;2022-12-29T03:34:02;4.18;;;1.58;;
37753;SDS011;23596;52.520;13.464;2022-12-29T03:36:32;5.07;;;1.80;;
37753;SDS011;23596;52.520;13.464;2022-12-29T03:39:09;6.10;;;2.15;;
37753;SDS011;23596;52.520;13.464;2022-12-29T03:41:40;5.25;;;2.17;;
37753;SDS011;23596;52.520;13.464;2022-12-29T03:44:08;9.38;;;2.20;;
37753;SDS011;23596;52.520;13.464;2022-12-29T03:46:34;4.57;;;1.85;;
37753;SDS011;23596;52.520;13.464;2022-12-29T03:49:00;7.10;;;1.90;;
37753;SDS011;23596;52.520;13.464;2022-12-29T03:51:25;4.33;;;2.20;;
37753;SDS011;23596;52.520;13.464;2022-12-29T03:53:51;4.67;;;1.80;;
37753;SDS011;23596;52.520;13.464;2022-12-29T03:56:17;4.63;;;2.00;;
37753;SDS011;23596;52.520;13.464;2022-12-29T03:58:42;4.80;;;2.03;;
37753;SDS011;23596;52.520;13.464;2022-12-29T04:01:08;7.67;;;2.13;;
37753;SDS011;23596;52.520;13.464;2022-12-29T04:03:33;4.90;;;1.90;;
37753;SDS011;23596;52.520;13.464;2022-12-29T04:05:59;9.13;;;1.93;;
37753;SDS011;23596;52.520;13.464;2022-12-29T04:08:25;5.50;;;2.33;;
37753;SDS011;23596;52.520;13.464;2022-12-29T04:10:50;5.03;;;1.63;;
37753;SDS011;23596;52.520;13.464;2022-12-29T04:13:16;5.10;;;2.10;;
37753;SDS011;23596;52.520;13.464;2022-12-29T04:15:44;4.30;;;2.13;;
37753;SDS011;23596;52.520;13.464;2022-12-29T04:18:10;7.65;;;1.67;;
37753;SDS011;23596;52.520;13.464;2022-12-29T04:20:37;11.98;;;2.03;;
37753;SDS011;23596;52.520;13.464;2022-12-29T04:23:21;4.05;;;1.88;;
37753;SDS011;23596;52.520;13.464;2022-12-29T04:25:47;3.57;;;1.50;;
37753;SDS011;23596;52.520;13.464;2022-12-29T04:28:13;3.93;;;1.67;;
37753;SDS011;23596;52.520;13.464;2022-12-29T04:33:05;3.17;;;1.42;;
37753;SDS011;23596;52.520;13.464;2022-12-29T04:35:30;3.97;;;1.80;;
37753;SDS011;23596;52.520;13.464;2022-12-29T04:37:56;6.77;;;1.70;;
37753;SDS011;23596;52.520;13.464;2022-12-29T04:40:22;4.23;;;1.80;;
37753;SDS011;23596;52.520;13.464;2022-12-29T04:42:48;3.70;;;1.85;;
37753;SDS011;23596;52.520;13.464;2022-12-29T04:45:14;5.43;;;1.73;;
37753;SDS011;23596;52.520;13.464;2022-12-29T04:47:40;6.97;;;1.80;;
37753;SDS011;23596;52.520;13.464;2022-12-29T04:50:05;11.93;;;1.93;;
37753;SDS011;23596;52.520;13.464;2022-12-29T04:52:31;6.33;;;1.53;;
37753;SDS011;23596;52.520;13.464;2022-12-29T04:54:57;4.20;;;2.10;;
37753;SDS011;23596;52.520;13.464;2022-12-29T04:57:23;5.13;;;1.87;;
37753;SDS011;23596;52.520;13.464;2022-12-29T04:59:48;11.60;;;2.03;;
37753;SDS011;23596;52.520;13.464;2022-12-29T05:02:14;2.87;;;1.60;;
37753;SDS011;23596;52.520;13.464;2022-12-29T05:04:40;6.70;;;1.90;;
37753;SDS011;23596;52.520;13.464;2022-12-29T05:07:06;13.20;;;2.13;;
37753;SDS011;23596;52.520;13.464;2022-12-29T05:09:31;5.37;;;1.80;;
37753;SDS011;23596;52.520;13.464;2022-12-29T05:11:57;3.80;;;1.93;;
37753;SDS011;23596;52.520;13.464;2022-12-29T05:14:23;5.30;;;2.07;;
37753;SDS011;23596;52.520;13.464;2022-12-29T05:16:48;2.93;;;1.63;;
37753;SDS011;23596;52.520;13.464;2022-12-29T05:19:14;7.27;;;1.77;;
37753;SDS011;23596;52.520;13.464;2022-12-29T05:21:39;7.37;;;1.93;;
37753;SDS011;23596;52.520;13.464;2022-12-29T05:24:05;5.83;;;1.67;;
37753;SDS011;23596;52.520;13.464;2022-12-29T05:26:31;4.07;;;2.13;;
37753;SDS011;23596;52.520;13.464;2022-12-29T05:28:56;2.87;;;1.10;;
37753;SDS011;23596;52.520;13.464;2022-12-29T05:31:22;2.93;;;1.77;;
37753;SDS011;23596;52.520;13.464;2022-12-29T05:33:47;5.43;;;1.50;;
37753;SDS011;23596;52.520;13.464;2022-12-29T05:36:13;4.17;;;1.80;;
37753;SDS011;23596;52.520;13.464;2022-12-29T05:38:39;3.77;;;1.53;;
37753;SDS011;23596;52.520;13.464;2022-12-29T05:41:04;6.70;;;1.57;;
37753;SDS011;23596;52.520;13.464;2022-12-29T05:43:30;4.57;;;1.37;;
37753;SDS011;23596;52.520;13.464;2022-12-29T05:45:55;4.43;;;1.73;;
37753;SDS011;23596;52.520;13.464;2022-12-29T05:48:22;7.03;;;1.65;;
37753;SDS011;23596;52.520;13.464;2022-12-29T05:50:48;13.07;;;1.73;;
37753;SDS011;23596;52.520;13.464;2022-12-29T05:53:15;4.90;;;1.60;;
37753;SDS011;23596;52.520;13.464;2022-12-29T05:55:40;3.60;;;1.90;;
37753;SDS011;23596;52.520;13.464;2022-12-29T05:58:07;3.17;;;1.50;;
37753;SDS011;23596;52.520;13.464;2022-12-29T06:00:32;4.00;;;1.60;;
37753;SDS011;23596;52.520;13.464;2022-12-29T06:02:58;9.50;;;3.37;;
37753;SDS011;23596;52.520;13.464;2022-12-29T06:05:23;3.17;;;1.77;;
37753;SDS011;23596;52.520;13.464;2022-12-29T06:07:49;3.00;;;1.37;;
37753;SDS011;23596;52.520;13.464;2022-12-29T06:10:14;2.73;;;1.47;;
37753;SDS011;23596;52.520;13.464;2022-12-29T06:12:40;7.07;;;1.97;;
37753;SDS011;23596;52.520;13.464;2022-12-29T06:15:06;7.17;;;1.57;;
37753;SDS011;23596;52.520;13.464;2022-12-29T06:17:32;3.53;;;1.48;;
37753;SDS011;23596;52.520;13.464;2022-12-29T06:19:57;7.47;;;1.50;;
37753;SDS011;23596;52.520;13.464;2022-12-29T06:22:23;2.97;;;1.43;;
37753;SDS011;23596;52.520;13.464;2022-12-29T06:24:49;3.40;;;1.57;;
37753;SDS011;23596;52.520;13.464;2022-12-29T06:27:14;8.23;;;2.00;;
37753;SDS011;23596;52.520;13.464;2022-12-29T06:29:40;6.80;;;1.50;;
37753;SDS011;23596;52.520;13.464;2022-12-29T06:32:06;4.87;;;2.10;;
37753;SDS011;23596;52.520;13.464;2022-12-29T06:34:31;18.03;;;3.47;;
37753;SDS011;23596;52.520;13.464;2022-12-29T06:36:57;5.40;;;2.10;;
37753;SDS011;23596;52.520;13.464;2022-12-29T06:39:23;6.63;;;3.00;;
37753;SDS011;23596;52.520;13.464;2022-12-29T06:41:51;6.70;;;2.30;;
37753;SDS011;23596;52.520;13.464;2022-12-29T06:44:18;8.50;;;2.53;;
37753;SDS011;23596;52.520;13.464;2022-12-29T06:46:44;5.30;;;2.10;;
37753;SDS011;23596;52.520;13.464;2022-12-29T06:49:10;4.60;;;2.17;;
37753;SDS011;23596;52.520;13.464;2022-12-29T06:51:36;4.90;;;2.27;;
37753;SDS011;23596;52.520;13.464;2022-12-29T06:54:01;3.87;;;1.57;;
37753;SDS011;23596;52.520;13.464;2022-12-29T06:56:27;4.07;;;1.90;;
37753;SDS011;23596;52.520;13.464;2022-12-29T06:58:53;11.27;;;3.03;;
37753;SDS011;23596;52.520;13.464;2022-12-29T07:01:18;8.83;;;2.20;;
37753;SDS011;23596;52.520;13.464;2022-12-29T07:03:44;6.13;;;2.00;;
37753;SDS011;23596;52.520;13.464;2022-12-29T07:06:09;7.10;;;3.30;;
37753;SDS011;23596;52.520;13.464;2022-12-29T07:08:35;8.83;;;2.73;;
37753;SDS011;23596;52.520;13.464;2022-12-29T07:11:01;11.00;;;2.87;;
37753;SDS011;23596;52.520;13.464;2022-12-29T07:13:26;4.37;;;2.03;;
37753;SDS011;23596;52.520;13.464;2022-12-29T07:15:52;5.80;;;2.13;;
37753;SDS011;23596;52.520;13.464;2022-12-29T07:18:17;7.13;;;3.30;;
37753;SDS011;23596;52.520;13.464;2022-12-29T07:20:43;10.43;;;2.03;;
37753;SDS011;23596;52.520;13.464;2022-12-29T07:23:10;2.90;;;1.40;;
37753;SDS011;23596;52.520;13.464;2022-12-29T07:25:36;11.80;;;2.70;;
37753;SDS011;23596;52.520;13.464;2022-12-29T07:28:02;3.87;;;1.87;;
37753;SDS011;23596;52.520;13.464;2022-12-29T07:30:28;5.88;;;2.08;;
37753;SDS011;23596;52.520;13.464;2022-12-29T07:32:54;3.07;;;1.30;;
37753;SDS011;23596;52.520;13.464;2022-12-29T07:35:19;5.47;;;1.83;;
37753;SDS011;23596;52.520;13.464;2022-12-29T07:37:45;4.90;;;1.90;;
37753;SDS011;23596;52.520;13.464;2022-12-29T07:40:11;3.33;;;1.57;;
37753;SDS011;23596;52.520;13.464;2022-12-29T07:42:37;4.78;;;1.98;;
37753;SDS011;23596;52.520;13.464;2022-12-29T07:45:03;4.27;;;1.97;;
37753;SDS011;23596;52.520;13.464;2022-12-29T07:47:29;4.25;;;2.28;;
37753;SDS011;23596;52.520;13.464;2022-12-29T07:49:55;4.27;;;2.00;;
37753;SDS011;23596;52.520;13.464;2022-12-29T07:52:20;3.33;;;1.50;;
37753;SDS011;23596;52.520;13.464;2022-12-29T07:54:46;4.70;;;1.93;;
37753;SDS011;23596;52.520;13.464;2022-12-29T07:57:12;6.57;;;1.70;;
37753;SDS011;23596;52.520;13.464;2022-12-29T07:59:37;3.70;;;1.13;;
37753;SDS011;23596;52.520;13.464;2022-12-29T08:02:03;5.20;;;1.93;;
37753;SDS011;23596;52.520;13.464;2022-12-29T08:04:29;7.27;;;1.40;;
37753;SDS011;23596;52.520;13.464;2022-12-29T08:06:54;5.90;;;1.77;;
37753;SDS011;23596;52.520;13.464;2022-12-29T08:09:20;6.63;;;1.50;;
37753;SDS011;23596;52.520;13.464;2022-12-29T08:11:45;8.10;;;1.63;;
37753;SDS011;23596;52.520;13.464;2022-12-29T08:14:12;7.37;;;1.50;;
37753;SDS011;23596;52.520;13.464;2022-12-29T08:19:03;2.35;;;1.20;;
37753;SDS011;23596;52.520;13.464;2022-12-29T08:21:30;4.22;;;1.38;;
37753;SDS011;23596;52.520;13.464;2022-12-29T08:23:56;4.00;;;1.40;;
37753;SDS011;23596;52.520;13.464;2022-12-29T08:26:21;4.43;;;1.63;;
37753;SDS011;23596;52.520;13.464;2022-12-29T08:28:47;3.70;;;1.37;;
37753;SDS011;23596;52.520;13.464;2022-12-29T08:31:12;6.23;;;1.80;;
37753;SDS011;23596;52.520;13.464;2022-12-29T08:33:38;4.03;;;1.70;;
37753;SDS011;23596;52.520;13.464;2022-12-29T08:36:05;10.73;;;2.40;;
37753;SDS011;23596;52.520;13.464;2022-12-29T08:38:31;3.72;;;1.85;;
37753;SDS011;23596;52.520;13.464;2022-12-29T08:40:57;2.72;;;1.70;;
37753;SDS011;23596;52.520;13.464;2022-12-29T08:43:24;7.40;;;1.58;;
37753;SDS011;23596;52.520;13.464;2022-12-29T08:45:50;5.87;;;1.70;;
37753;SDS011;23596;52.520;13.464;2022-12-29T08:48:16;4.57;;;1.80;;
37753;SDS011;23596;52.520;13.464;2022-12-29T08:50:44;7.72;;;1.50;;
37753;SDS011;23596;52.520;13.464;2022-12-29T08:53:10;4.90;;;1.55;;
37753;SDS011;23596;52.520;13.464;2022-12-29T08:55:36;11.03;;;2.13;;
37753;SDS011;23596;52.520;13.464;2022-12-29T08:58:02;3.60;;;1.67;;
37753;SDS011;23596;52.520;13.464;2022-12-29T09:00:27;6.27;;;1.70;;
37753;SDS011;23596;52.520;13.464;2022-12-29T09:02:53;9.77;;;1.53;;
37753;SDS011;23596;52.520;13.464;2022-12-29T09:05:18;5.80;;;1.60;;
37753;SDS011;23596;52.520;13.464;2022-12-29T09:07:44;3.33;;;1.40;;
37753;SDS011;23596;52.520;13.464;2022-12-29T09:10:10;4.73;;;2.00;;
37753;SDS011;23596;52.520;13.464;2022-12-29T09:12:35;3.07;;;1.70;;
37753;SDS011;23596;52.520;13.464;2022-12-29T09:15:01;4.27;;;1.67;;
37753;SDS011;23596;52.520;13.464;2022-12-29T09:17:26;1.97;;;1.20;;
37753;SDS011;23596;52.520;13.464;2022-12-29T09:20:08;5.03;;;1.20;;
37753;SDS011;23596;52.520;13.464;2022-12-29T09:22:35;5.35;;;2.38;;
37753;SDS011;23596;52.520;13.464;2022-12-29T09:25:01;3.45;;;1.35;;
37753;SDS011;23596;52.520;13.464;2022-12-29T09:27:27;6.05;;;1.50;;
37753;SDS011;23596;52.520;13.464;2022-12-29T09:29:53;4.93;;;1.63;;
37753;SDS011;23596;52.520;13.464;2022-12-29T09:32:18;5.40;;;1.40;;
37753;SDS011;23596;52.520;13.464;2022-12-29T09:34:44;6.53;;;1.43;;
37753;SDS011;23596;52.520;13.464;2022-12-29T09:37:10;6.67;;;1.40;;
37753;SDS011;23596;52.520;13.464;2022-12-29T09:39:35;3.13;;;1.30;;
37753;SDS011;23596;52.520;13.464;2022-12-29T09:42:05;4.77;;;1.80;;
37753;SDS011;23596;52.520;13.464;2022-12-29T09:47:24;4.97;;;1.50;;
37753;SDS011;23596;52.520;13.464;2022-12-29T09:52:37;2.35;;;1.30;;
37753;SDS011;23596;52.520;13.464;2022-12-29T09:55:10;4.15;;;1.60;;
37753;SDS011;23596;52.520;13.464;2022-12-29T10:00:16;7.80;;;1.63;;
37753;SDS011;23596;52.520;13.464;2022-12-29T10:02:46;2.95;;;1.35;;
37753;SDS011;23596;52.520;13.464;2022-12-29T10:10:53;5.43;;;1.40;;
37753;SDS011;23596;52.520;13.464;2022-12-29T10:16:25;10.88;;;1.90;;
37753;SDS011;23596;52.520;13.464;2022-12-29T10:19:16;3.65;;;1.75;;
37753;SDS011;23596;52.520;13.464;2022-12-29T10:24:53;8.43;;;1.70;;
37753;SDS011;23596;52.520;13.464;2022-12-29T10:27:21;5.68;;;1.40;;
37753;SDS011;23596;52.520;13.464;2022-12-29T10:35:05;2.63;;;1.33;;
37753;SDS011;23596;52.520;13.464;2022-12-29T10:40:38;5.30;;;1.58;;
37753;SDS011;23596;52.520;13.464;2022-12-29T10:43:22;2.55;;;1.17;;
37753;SDS011;23596;52.520;13.464;2022-12-29T10:45:54;7.03;;;1.02;;
37753;SDS011;23596;52.520;13.464;2022-12-29T10:48:31;2.15;;;1.10;;
37753;SDS011;23596;52.520;13.464;2022-12-29T10:50:59;5.43;;;1.33;;
37753;SDS011;23596;52.520;13.464;2022-12-29T10:54:11;3.67;;;1.70;;
37753;SDS011;23596;52.520;13.464;2022-12-29T10:56:31;2.55;;;1.15;;
37753;SDS011;23596;52.520;13.464;2022-12-29T10:58:59;3.83;;;1.20;;
37753;SDS011;23596;52.520;13.464;2022-12-29T11:01:35;12.02;;;1.73;;
37753;SDS011;23596;52.520;13.464;2022-12-29T11:04:22;9.68;;;1.45;;
37753;SDS011;23596;52.520;13.464;2022-12-29T11:07:13;6.88;;;1.83;;
37753;SDS011;23596;52.520;13.464;2022-12-29T11:09:42;5.32;;;1.55;;
37753;SDS011;23596;52.520;13.464;2022-12-29T11:12:21;2.17;;;1.25;;
37753;SDS011;23596;52.520;13.464;2022-12-29T11:14:47;2.03;;;1.20;;
37753;SDS011;23596;52.520;13.464;2022-12-29T11:17:30;5.40;;;1.48;;
37753;SDS011;23596;52.520;13.464;2022-12-29T11:20:27;6.85;;;1.45;;
37753;SDS011;23596;52.520;13.464;2022-12-29T11:22:55;6.43;;;1.27;;
37753;SDS011;23596;52.520;13.464;2022-12-29T11:25:21;4.40;;;1.10;;
37753;SDS011;23596;52.520;13.464;2022-12-29T11:28:00;3.37;;;1.10;;
37753;SDS011;23596;52.520;13.464;2022-12-29T11:30:40;3.95;;;1.10;;
37753;SDS011;23596;52.520;13.464;2022-12-29T11:33:07;3.45;;;1.48;;
37753;SDS011;23596;52.520;13.464;2022-12-29T11:38:18;2.50;;;1.40;;
37753;SDS011;23596;52.520;13.464;2022-12-29T11:40:47;8.35;;;1.80;;
37753;SDS011;23596;52.520;13.464;2022-12-29T11:43:20;2.60;;;1.13;;
37753;SDS011;23596;52.520;13.464;2022-12-29T11:45:54;3.70;;;1.05;;
37753;SDS011;23596;52.520;13.464;2022-12-29T11:48:21;7.18;;;1.58;;
37753;SDS011;23596;52.520;13.464;2022-12-29T11:50:54;4.85;;;1.13;;
37753;SDS011;23596;52.520;13.464;2022-12-29T11:55:58;3.92;;;1.27;;
37753;SDS011;23596;52.520;13.464;2022-12-29T11:58:30;5.28;;;1.25;;
37753;SDS011;23596;52.520;13.464;2022-12-29T12:00:59;2.05;;;0.90;;
37753;SDS011;23596;52.520;13.464;2022-12-29T12:03:28;2.33;;;0.80;;
37753;SDS011;23596;52.520;13.464;2022-12-29T12:06:03;2.83;;;1.17;;
37753;SDS011;23596;52.520;13.464;2022-12-29T12:11:09;2.15;;;1.05;;
37753;SDS011;23596;52.520;13.464;2022-12-29T12:16:29;2.95;;;1.20;;
37753;SDS011;23596;52.520;13.464;2022-12-29T12:19:06;8.23;;;0.93;;
37753;SDS011;23596;52.520;13.464;2022-12-29T12:21:38;2.95;;;1.15;;
37753;SDS011;23596;52.520;13.464;2022-12-29T12:24:11;7.88;;;2.50;;
37753;SDS011;23596;52.520;13.464;2022-12-29T12:32:39;3.95;;;1.15;;
37753;SDS011;23596;52.520;13.464;2022-12-29T12:38:17;3.05;;;0.68;;
37753;SDS011;23596;52.520;13.464;2022-12-29T12:51:37;4.88;;;1.13;;
37753;SDS011;23596;52.520;13.464;2022-12-29T13:03:17;4.72;;;1.40;;
37753;SDS011;23596;52.520;13.464;2022-12-29T13:13:44;5.60;;;1.98;;
37753;SDS011;23596;52.520;13.464;2022-12-29T13:19:14;4.50;;;1.95;;
37753;SDS011;23596;52.520;13.464;2022-12-29T13:24:51;4.03;;;1.48;;
37753;SDS011;23596;52.520;13.464;2022-12-29T13:27:44;3.72;;;1.67;;
37753;SDS011;23596;52.520;13.464;2022-12-29T13:30:17;6.55;;;2.30;;
37753;SDS011;23596;52.520;13.464;2022-12-29T13:35:59;5.03;;;2.47;;
37753;SDS011;23596;52.520;13.464;2022-12-29T13:38:30;5.40;;;2.00;;
37753;SDS011;23596;52.520;13.464;2022-12-29T13:41:14;7.05;;;2.08;;
37753;SDS011;23596;52.520;13.464;2022-12-29T13:43:52;6.00;;;1.63;;
37753;SDS011;23596;52.520;13.464;2022-12-29T13:46:21;5.18;;;2.00;;
37753;SDS011;23596;52.520;13.464;2022-12-29T13:48:51;11.85;;;2.03;;
37753;SDS011;23596;52.520;13.464;2022-12-29T13:51:22;5.97;;;1.75;;
37753;SDS011;23596;52.520;13.464;2022-12-29T13:56:24;13.45;;;2.10;;
37753;SDS011;23596;52.520;13.464;2022-12-29T14:01:59;3.38;;;1.58;;
37753;SDS011;23596;52.520;13.464;2022-12-29T14:04:33;4.57;;;2.08;;
37753;SDS011;23596;52.520;13.464;2022-12-29T14:12:18;7.22;;;2.67;;
37753;SDS011;23596;52.520;13.464;2022-12-29T14:14:50;5.15;;;2.30;;
37753;SDS011;23596;52.520;13.464;2022-12-29T14:17:18;5.63;;;2.10;;
37753;SDS011;23596;52.520;13.464;2022-12-29T14:19:46;5.07;;;2.40;;
37753;SDS011;23596;52.520;13.464;2022-12-29T14:22:25;7.63;;;1.90;;
37753;SDS011;23596;52.520;13.464;2022-12-29T14:24:52;6.80;;;2.25;;
37753;SDS011;23596;52.520;13.464;2022-12-29T14:29:49;4.00;;;1.70;;
37753;SDS011;23596;52.520;13.464;2022-12-29T14:34:54;6.03;;;2.00;;
37753;SDS011;23596;52.520;13.464;2022-12-29T14:37:27;8.13;;;2.63;;
37753;SDS011;23596;52.520;13.464;2022-12-29T14:40:05;5.07;;;1.85;;
37753;SDS011;23596;52.520;13.464;2022-12-29T14:42:31;5.80;;;2.42;;
37753;SDS011;23596;52.520;13.464;2022-12-29T14:47:47;5.88;;;2.45;;
37753;SDS011;23596;52.520;13.464;2022-12-29T14:52:51;5.18;;;2.42;;
37753;SDS011;23596;52.520;13.464;2022-12-29T15:00:46;10.95;;;2.85;;
37753;SDS011;23596;52.520;13.464;2022-12-29T15:03:14;14.10;;;2.92;;
37753;SDS011;23596;52.520;13.464;2022-12-29T15:08:32;4.18;;;2.33;;
37753;SDS011;23596;52.520;13.464;2022-12-29T15:11:19;6.45;;;2.83;;
37753;SDS011;23596;52.520;13.464;2022-12-29T15:13:47;7.97;;;2.97;;
37753;SDS011;23596;52.520;13.464;2022-12-29T15:16:30;9.05;;;2.88;;
37753;SDS011;23596;52.520;13.464;2022-12-29T15:18:57;6.38;;;3.38;;
37753;SDS011;23596;52.520;13.464;2022-12-29T15:21:30;8.77;;;2.40;;
37753;SDS011;23596;52.520;13.464;2022-12-29T15:23:58;9.68;;;3.03;;
37753;SDS011;23596;52.520;13.464;2022-12-29T15:26:36;5.00;;;2.50;;
37753;SDS011;23596;52.520;13.464;2022-12-29T15:32:16;5.47;;;1.98;;
37753;SDS011;23596;52.520;13.464;2022-12-29T15:34:43;5.72;;;2.22;;
37753;SDS011;23596;52.520;13.464;2022-12-29T15:37:15;4.13;;;2.20;;
37753;SDS011;23596;52.520;13.464;2022-12-29T15:39:46;7.90;;;2.20;;
37753;SDS011;23596;52.520;13.464;2022-12-29T15:44:44;9.60;;;3.20;;
37753;SDS011;23596;52.520;13.464;2022-12-29T15:47:32;10.95;;;3.15;;
37753;SDS011;23596;52.520;13.464;2022-12-29T15:50:05;17.45;;;5.28;;
37753;SDS011;23596;52.520;13.464;2022-12-29T15:52:38;12.85;;;4.50;;
37753;SDS011;23596;52.520;13.464;2022-12-29T15:55:04;11.68;;;4.50;;
37753;SDS011;23596;52.520;13.464;2022-12-29T15:57:35;13.83;;;5.10;;
37753;SDS011;23596;52.520;13.464;2022-12-29T16:00:03;12.07;;;4.75;;
37753;SDS011;23596;52.520;13.464;2022-12-29T16:02:45;18.15;;;5.78;;
37753;SDS011;23596;52.520;13.464;2022-12-29T16:05:18;11.33;;;5.10;;
37753;SDS011;23596;52.520;13.464;2022-12-29T16:10:55;16.98;;;5.32;;
37753;SDS011;23596;52.520;13.464;2022-12-29T16:13:25;16.67;;;5.70;;
37753;SDS011;23596;52.520;13.464;2022-12-29T16:16:13;17.40;;;5.47;;
37753;SDS011;23596;52.520;13.464;2022-12-29T16:18:44;14.02;;;4.22;;
37753;SDS011;23596;52.520;13.464;2022-12-29T16:21:21;16.10;;;5.72;;
37753;SDS011;23596;52.520;13.464;2022-12-29T16:23:51;12.90;;;4.32;;
37753;SDS011;23596;52.520;13.464;2022-12-29T16:26:20;14.90;;;4.35;;
37753;SDS011;23596;52.520;13.464;2022-12-29T16:28:49;12.52;;;4.30;;
37753;SDS011;23596;52.520;13.464;2022-12-29T16:31:34;14.90;;;3.28;;
37753;SDS011;23596;52.520;13.464;2022-12-29T16:37:03;8.88;;;3.50;;
37753;SDS011;23596;52.520;13.464;2022-12-29T16:39:49;16.38;;;3.55;;
37753;SDS011;23596;52.520;13.464;2022-12-29T16:50:36;12.07;;;3.03;;
37753;SDS011;23596;52.520;13.464;2022-12-29T16:53:04;13.55;;;3.40;;
37753;SDS011;23596;52.520;13.464;2022-12-29T16:55:32;8.32;;;2.85;;
37753;SDS011;23596;52.520;13.464;2022-12-29T16:57:58;15.70;;;2.93;;
37753;SDS011;23596;52.520;13.464;2022-12-29T17:00:26;7.43;;;2.90;;
37753;SDS011;23596;52.520;13.464;2022-12-29T17:03:01;9.48;;;3.22;;
37753;SDS011;23596;52.520;13.464;2022-12-29T17:05:27;7.20;;;2.17;;
37753;SDS011;23596;52.520;13.464;2022-12-29T17:07:53;10.37;;;2.63;;
37753;SDS011;23596;52.520;13.464;2022-12-29T17:10:20;9.02;;;3.60;;
37753;SDS011;23596;52.520;13.464;2022-12-29T17:13:06;9.75;;;2.97;;
37753;SDS011;23596;52.520;13.464;2022-12-29T17:15:33;9.55;;;2.85;;
37753;SDS011;23596;52.520;13.464;2022-12-29T17:17:59;6.32;;;2.35;;
37753;SDS011;23596;52.520;13.464;2022-12-29T17:20:27;9.43;;;3.08;;
37753;SDS011;23596;52.520;13.464;2022-12-29T17:22:53;12.05;;;3.10;;
37753;SDS011;23596;52.520;13.464;2022-12-29T17:25:21;9.30;;;3.20;;
37753;SDS011;23596;52.520;13.464;2022-12-29T17:27:51;11.20;;;3.30;;
37753;SDS011;23596;52.520;13.464;2022-12-29T17:30:19;10.80;;;2.92;;
37753;SDS011;23596;52.520;13.464;2022-12-29T17:32:50;9.02;;;3.17;;
37753;SDS011;23596;52.520;13.464;2022-12-29T17:35:18;10.90;;;3.08;;
37753;SDS011;23596;52.520;13.464;2022-12-29T17:37:45;9.70;;;3.60;;
37753;SDS011;23596;52.520;13.464;2022-12-29T17:40:13;16.20;;;3.00;;
37753;SDS011;23596;52.520;13.464;2022-12-29T17:42:44;11.02;;;2.85;;
37753;SDS011;23596;52.520;13.464;2022-12-29T17:45:12;9.75;;;3.47;;
37753;SDS011;23596;52.520;13.464;2022-12-29T17:47:40;9.95;;;3.35;;
37753;SDS011;23596;52.520;13.464;2022-12-29T17:50:09;4.73;;;1.77;;
37753;SDS011;23596;52.520;13.464;2022-12-29T17:52:39;6.32;;;2.00;;